Manchester, Minnesota
Current Conditions -  °F | °C
As of 9:25 PM on Friday 28 Nov 2014 (Local Time) from KAEL Reporting Station
Haze Haze  
Wind Chill: 16°   Ceiling: Unl
Heat Index: 23°   Visibility: 5mi
Dew Point: 21°   Wind: 6mph
Humidity: 93%   Direction: 130°SE
Pressure: 29.72"   Gusts: NA
Location:  43.72°N, 93.45°W
Report Text: KAEL 290325Z AUTO 13005KT 5SM BR CLR M05/M06 A2972 RMK AO2
Loading
Personal Weather Stations






























Interactive Weather Map New forecast layout! Learn more

10-Day Weather Forecast

Advertisements
Track Severe Weather on mobile